createdAt,value
2019-03-21T00:02:18.285Z,81.07
2019-03-21T00:04:48.957Z,76.13
2019-03-21T00:07:18.817Z,78.70
2019-03-21T00:10:04.785Z,83.13
2019-03-21T00:12:33.144Z,78.20
2019-03-21T00:15:23.433Z,83.80
2019-03-21T00:17:54.275Z,80.97
2019-03-21T00:20:22.773Z,78.53
2019-03-21T00:22:52.363Z,79.70
2019-03-21T00:25:21.775Z,77.03
2019-03-21T00:27:50.286Z,75.50
2019-03-21T00:30:19.862Z,73.33
2019-03-21T00:32:48.325Z,72.57
2019-03-21T00:35:18.727Z,74.37
2019-03-21T00:37:47.197Z,76.70
2019-03-21T00:40:17.196Z,84.73
2019-03-21T00:42:48.368Z,82.10
2019-03-21T00:45:23.433Z,75.87
2019-03-21T00:47:51.521Z,77.03
2019-03-21T00:50:20.656Z,77.57
2019-03-21T00:52:50.330Z,77.40
2019-03-21T00:55:20.597Z,77.00
2019-03-21T00:57:48.967Z,81.90
2019-03-21T01:00:20.774Z,82.00
2019-03-21T01:02:49.249Z,76.50
2019-03-21T01:05:17.717Z,81.50
2019-03-21T01:07:47.716Z,76.07
2019-03-21T01:10:16.426Z,77.50
2019-03-21T01:12:45.001Z,74.17
2019-03-21T01:15:15.127Z,81.23
2019-03-21T01:17:43.865Z,73.80
2019-03-21T01:20:13.226Z,82.67
2019-03-21T01:22:41.910Z,77.97
2019-03-21T01:25:12.954Z,78.30
2019-03-21T01:27:41.345Z,70.07
2019-03-21T01:30:11.325Z,78.73
2019-03-21T01:32:39.845Z,79.67
2019-03-21T01:35:08.345Z,73.77
2019-03-21T01:37:38.694Z,79.03
2019-03-21T01:40:08.338Z,82.20
2019-03-21T01:42:37.984Z,78.60
2019-03-21T01:45:08.663Z,69.53
2019-03-21T01:47:37.012Z,74.60
2019-03-21T01:50:05.912Z,78.63
2019-03-21T01:52:35.414Z,77.17
2019-03-21T01:55:04.225Z,73.00
2019-03-21T01:57:34.057Z,76.53
2019-03-21T02:00:03.031Z,77.53
2019-03-21T02:02:32.531Z,81.27
2019-03-21T02:05:00.914Z,75.57
2019-03-21T02:07:29.591Z,73.80
2019-03-21T02:09:58.057Z,73.53
2019-03-21T02:12:26.450Z,72.20
2019-03-21T02:14:54.923Z,73.73
2019-03-21T02:17:24.270Z,72.90
2019-03-21T02:19:53.658Z,70.50
2019-03-21T02:22:22.074Z,69.97
2019-03-21T02:24:51.553Z,75.27
2019-03-21T02:27:20.006Z,70.07
2019-03-21T02:29:50.281Z,72.57
2019-03-21T02:32:20.091Z,70.30
2019-03-21T02:34:49.572Z,68.73
2019-03-21T02:37:18.262Z,65.47
2019-03-21T02:39:58.542Z,65.20
2019-03-21T02:42:16.822Z,74.00
2019-03-21T02:44:45.558Z,64.10
2019-03-21T02:47:13.995Z,65.20
2019-03-21T02:49:42.556Z,66.93
2019-03-21T02:52:11.088Z,65.53
2019-03-21T02:54:39.442Z,70.70
2019-03-21T02:57:09.249Z,63.73
2019-03-21T02:59:39.645Z,68.10
2019-03-21T03:02:07.980Z,62.53
2019-03-21T03:04:37.453Z,63.10
2019-03-21T03:07:06.037Z,65.70
2019-03-21T03:09:34.860Z,63.87
2019-03-21T03:12:03.279Z,67.10
2019-03-21T03:14:31.898Z,63.17
2019-03-21T03:17:00.391Z,62.30
2019-03-21T03:19:28.786Z,62.77
2019-03-21T03:21:57.349Z,57.67
2019-03-21T03:24:26.591Z,64.13
2019-03-21T03:26:54.958Z,63.97
2019-03-21T03:29:23.733Z,65.00
2019-03-21T03:31:52.125Z,63.97
2019-03-21T03:34:20.524Z,64.07
2019-03-21T03:36:49.066Z,59.67
2019-03-21T03:39:17.465Z,64.57
2019-03-21T03:41:45.954Z,65.70
2019-03-21T03:44:14.649Z,66.97
2019-03-21T03:46:42.990Z,61.47
2019-03-21T03:49:11.336Z,62.70
2019-03-21T03:51:39.989Z,61.07
2019-03-21T03:54:08.329Z,65.67
2019-03-21T03:56:37.082Z,60.73
2019-03-21T03:59:05.873Z,68.40
2019-03-21T04:01:34.328Z,67.40
2019-03-21T04:04:03.012Z,62.83
2019-03-21T04:06:31.424Z,64.90
2019-03-21T04:08:59.878Z,67.47
2019-03-21T04:11:28.293Z,76.83
2019-03-21T04:13:56.754Z,65.57
2019-03-21T04:16:25.266Z,72.27
2019-03-21T04:18:53.830Z,72.10
2019-03-21T04:21:22.407Z,66.50
2019-03-21T04:23:50.884Z,68.73
2019-03-21T04:26:21.045Z,71.33
2019-03-21T04:28:49.624Z,66.60
2019-03-21T04:31:18.184Z,65.23
2019-03-21T04:33:47.728Z,63.37
2019-03-21T04:36:16.314Z,64.53
2019-03-21T04:38:44.774Z,60.70
2019-03-21T04:41:13.198Z,64.40
2019-03-21T04:43:41.869Z,60.60
2019-03-21T04:46:11.784Z,56.20
2019-03-21T04:48:40.186Z,60.57
2019-03-21T04:51:10.299Z,61.10
2019-03-21T04:53:38.690Z,59.80
2019-03-21T04:56:07.166Z,64.10
2019-03-21T04:58:36.691Z,55.33
2019-03-21T05:01:05.474Z,50.00
2019-03-21T05:03:34.039Z,50.67
2019-03-21T05:06:03.266Z,52.17
2019-03-21T05:08:32.976Z,50.67
2019-03-21T05:11:01.607Z,47.17
2019-03-21T05:13:31.375Z,52.90
2019-03-21T05:15:59.762Z,49.03
2019-03-21T05:18:29.908Z,48.57
2019-03-21T05:20:59.690Z,50.60
2019-03-21T05:23:28.091Z,47.53
2019-03-21T05:25:56.475Z,46.53
2019-03-21T05:28:25.128Z,47.03
2019-03-21T05:30:56.361Z,46.87
2019-03-21T05:33:24.782Z,53.63
2019-03-21T05:35:53.566Z,52.33
2019-03-21T05:38:21.998Z,48.97
2019-03-21T05:40:50.378Z,51.83
2019-03-21T05:43:23.286Z,49.50
2019-03-21T05:45:51.630Z,50.83
2019-03-21T05:48:19.965Z,50.67
2019-03-21T05:50:48.648Z,49.17
2019-03-21T05:53:16.985Z,52.03
2019-03-21T05:55:45.330Z,49.03
2019-03-21T05:58:13.762Z,46.83
2019-03-21T06:00:42.677Z,47.43
2019-03-21T06:03:19.193Z,45.00
2019-03-21T06:05:49.551Z,50.93
2019-03-21T06:08:25.257Z,59.33
2019-03-21T06:10:53.629Z,52.87
2019-03-21T06:13:22.357Z,55.40
2019-03-21T06:15:50.764Z,52.63
2019-03-21T06:18:37.004Z,53.47
2019-03-21T06:21:08.311Z,55.57
2019-03-21T06:24:01.620Z,51.07
2019-03-21T06:26:50.426Z,47.83
2019-03-21T06:29:19.170Z,54.27
2019-03-21T06:31:47.542Z,50.13
2019-03-21T06:34:15.921Z,58.33
2019-03-21T06:36:44.344Z,51.33
2019-03-21T06:39:12.708Z,48.40
2019-03-21T06:41:41.101Z,52.10
2019-03-21T06:44:09.508Z,53.00
2019-03-21T06:46:48.508Z,54.83
2019-03-21T06:49:07.853Z,55.57
2019-03-21T06:51:36.333Z,56.20
2019-03-21T06:54:04.777Z,50.63
2019-03-21T06:56:33.419Z,58.57
2019-03-21T06:59:01.930Z,57.13
2019-03-21T07:01:30.297Z,53.53
2019-03-21T07:04:06.562Z,61.30
2019-03-21T07:06:29.003Z,55.03
2019-03-21T07:09:24.350Z,54.87
2019-03-21T07:11:52.977Z,53.10
2019-03-21T07:14:21.331Z,56.00
2019-03-21T07:16:59.818Z,51.37
2019-03-21T07:19:19.738Z,48.50
2019-03-21T07:21:49.228Z,47.73
2019-03-21T07:24:17.571Z,46.23
2019-03-21T07:26:45.972Z,47.07
2019-03-21T07:29:14.307Z,45.13
2019-03-21T07:31:42.639Z,44.33
2019-03-21T07:34:11.061Z,44.07
2019-03-21T07:36:39.404Z,45.00
2019-03-21T07:39:08.058Z,42.37
2019-03-21T07:41:36.564Z,48.30
2019-03-21T07:44:04.917Z,48.20
2019-03-21T07:46:33.402Z,49.20
2019-03-21T07:49:01.938Z,49.53
2019-03-21T07:51:30.308Z,48.47
2019-03-21T07:53:58.661Z,48.87
2019-03-21T07:56:27.178Z,47.23
2019-03-21T07:58:57.689Z,43.63
2019-03-21T08:01:25.551Z,49.00
2019-03-21T08:03:54.064Z,47.07
2019-03-21T08:06:22.396Z,43.90
2019-03-21T08:08:51.027Z,49.20
2019-03-21T08:11:19.439Z,47.67
2019-03-21T08:13:47.809Z,45.03
2019-03-21T08:16:16.140Z,48.23
2019-03-21T08:18:44.793Z,49.07
2019-03-21T08:21:13.201Z,49.17
2019-03-21T08:23:41.562Z,49.90
2019-03-21T08:26:10.038Z,50.60
2019-03-21T08:28:38.400Z,53.27
2019-03-21T08:31:31.673Z,52.03
2019-03-21T08:34:00.106Z,51.33
2019-03-21T08:36:28.375Z,50.70
2019-03-21T08:38:57.043Z,50.00
2019-03-21T08:41:25.428Z,45.80
2019-03-21T08:43:53.793Z,48.23
2019-03-21T08:46:22.385Z,43.03
2019-03-21T08:48:50.710Z,38.93
2019-03-21T08:51:19.041Z,42.60
2019-03-21T08:53:47.481Z,42.67
2019-03-21T08:56:15.850Z,38.03
2019-03-21T08:58:44.272Z,34.67
2019-03-21T09:01:13.010Z,34.03
2019-03-21T09:03:41.342Z,32.77
2019-03-21T09:06:09.726Z,31.77
2019-03-21T09:08:38.224Z,32.43
2019-03-21T09:11:06.963Z,32.73
2019-03-21T09:13:38.621Z,31.87
2019-03-21T09:16:07.049Z,29.63
2019-03-21T09:18:35.517Z,33.33
2019-03-21T09:21:04.456Z,32.20
2019-03-21T09:23:33.814Z,33.08
2019-03-21T09:26:02.313Z,33.60
2019-03-21T09:28:30.722Z,29.93
2019-03-21T09:30:59.153Z,29.90
2019-03-21T09:33:27.593Z,31.47
2019-03-21T09:35:55.996Z,33.07
2019-03-21T09:38:24.682Z,32.60
2019-03-21T09:40:53.129Z,33.13
2019-03-21T09:43:26.084Z,28.53
2019-03-21T09:45:54.617Z,30.60
2019-03-21T09:48:23.117Z,29.43
2019-03-21T09:50:51.527Z,33.90
2019-03-21T09:53:20.023Z,29.73
2019-03-21T09:55:48.434Z,30.97
2019-03-21T09:58:17.358Z,28.40
2019-03-21T10:00:45.749Z,26.80
2019-03-21T10:03:16.465Z,28.10
2019-03-21T10:05:44.816Z,29.23
2019-03-21T10:08:13.370Z,29.27
2019-03-21T10:10:41.720Z,30.83
2019-03-21T10:13:10.235Z,29.63
2019-03-21T10:15:39.812Z,30.77
2019-03-21T10:18:08.137Z,31.10
2019-03-21T10:20:36.526Z,33.80
2019-03-21T10:23:04.980Z,28.30
2019-03-21T10:25:33.688Z,33.63
2019-03-21T10:28:02.070Z,30.13
2019-03-21T10:30:32.038Z,30.47
2019-03-21T10:33:00.481Z,28.87
2019-03-21T10:35:28.862Z,29.60
2019-03-21T10:37:57.322Z,27.87
2019-03-21T10:40:25.733Z,29.03
2019-03-21T10:42:54.128Z,28.50
2019-03-21T10:45:22.618Z,29.33
2019-03-21T10:47:51.054Z,31.07
2019-03-21T10:50:26.995Z,30.07
2019-03-21T10:52:55.481Z,27.77
2019-03-21T10:55:23.938Z,29.13
2019-03-21T10:57:52.653Z,27.97
2019-03-21T11:00:21.206Z,33.13
2019-03-21T11:02:49.667Z,29.27
2019-03-21T11:05:23.054Z,30.63
2019-03-21T11:07:51.140Z,32.43
2019-03-21T11:10:19.546Z,33.10
2019-03-21T11:12:47.905Z,29.70
2019-03-21T11:15:16.829Z,28.47
2019-03-21T11:17:45.207Z,31.13
2019-03-21T11:20:17.144Z,31.50
2019-03-21T11:22:45.654Z,28.77
2019-03-21T11:25:14.041Z,28.93
2019-03-21T11:27:42.400Z,30.23
2019-03-21T11:30:16.300Z,32.13
2019-03-21T11:32:41.936Z,32.17
2019-03-21T11:35:10.309Z,29.97
2019-03-21T11:37:38.795Z,29.07
2019-03-21T11:40:07.219Z,33.50
2019-03-21T11:42:35.655Z,30.37
2019-03-21T11:45:04.481Z,33.13
2019-03-21T11:47:41.344Z,30.77
2019-03-21T11:50:02.884Z,29.27
2019-03-21T11:52:31.514Z,30.07
2019-03-21T11:54:59.887Z,29.70
2019-03-21T11:57:28.286Z,43.83
2019-03-21T11:59:56.725Z,28.47
2019-03-21T12:02:27.494Z,27.17
2019-03-21T12:04:55.454Z,30.40
2019-03-21T12:07:23.975Z,28.10
2019-03-21T12:09:52.384Z,26.47
2019-03-21T12:12:20.765Z,25.63
2019-03-21T12:14:50.038Z,26.43
2019-03-21T12:17:18.867Z,25.40
2019-03-21T12:19:47.211Z,28.00
2019-03-21T12:22:15.674Z,30.73
2019-03-21T12:24:44.029Z,24.57
2019-03-21T12:27:12.433Z,25.60
2019-03-21T12:29:40.906Z,22.97
2019-03-21T12:32:09.265Z,24.17
2019-03-21T12:34:37.645Z,22.83
2019-03-21T12:37:06.357Z,23.07
2019-03-21T12:39:34.714Z,24.03
2019-03-21T12:42:03.104Z,21.33
2019-03-21T12:44:31.533Z,20.83
2019-03-21T12:46:59.869Z,17.87
2019-03-21T12:49:28.202Z,21.93
2019-03-21T12:51:56.611Z,20.37
2019-03-21T12:54:24.966Z,21.20
2019-03-21T12:56:53.330Z,20.00
2019-03-21T12:59:21.970Z,21.50
2019-03-21T13:01:50.329Z,18.23
2019-03-21T13:04:18.729Z,17.37
2019-03-21T13:06:47.114Z,18.40
2019-03-21T13:09:15.474Z,17.80
2019-03-21T13:11:43.827Z,18.07
2019-03-21T13:14:12.256Z,20.10
2019-03-21T13:16:40.578Z,17.77
2019-03-21T13:19:09.246Z,19.50
2019-03-21T13:21:39.901Z,19.13
2019-03-21T13:24:10.361Z,21.33
2019-03-21T13:26:39.965Z,17.70
2019-03-21T13:29:08.699Z,19.00
2019-03-21T13:31:38.720Z,23.70
2019-03-21T13:34:07.013Z,24.00
2019-03-21T13:36:38.089Z,22.63
2019-03-21T13:39:08.019Z,20.65
2019-03-21T13:41:39.405Z,20.93
2019-03-21T13:44:08.535Z,22.27
2019-03-21T13:46:36.913Z,20.03
2019-03-21T13:49:06.150Z,19.97
2019-03-21T13:51:34.738Z,24.93
2019-03-21T13:54:03.093Z,20.83
2019-03-21T13:56:38.091Z,20.40
2019-03-21T13:59:01.734Z,22.27
2019-03-21T14:01:30.084Z,19.37
2019-03-21T14:03:58.436Z,20.00
2019-03-21T14:06:27.259Z,20.70
2019-03-21T14:08:55.595Z,19.73
2019-03-21T14:11:24.145Z,20.40
2019-03-21T14:13:52.616Z,19.93
2019-03-21T14:16:22.088Z,19.67
2019-03-21T14:18:50.416Z,19.80
2019-03-21T14:21:19.107Z,22.67
2019-03-21T14:23:47.399Z,20.00
2019-03-21T14:26:15.781Z,23.37
2019-03-21T14:28:44.447Z,21.40
2019-03-21T14:31:12.760Z,21.30
2019-03-21T14:33:41.093Z,20.63
2019-03-21T14:36:09.547Z,20.07
2019-03-21T14:38:37.859Z,21.20
2019-03-21T14:41:06.227Z,18.90
2019-03-21T14:43:34.689Z,22.30
2019-03-21T14:46:06.006Z,20.07
2019-03-21T14:48:39.414Z,19.63
2019-03-21T14:51:07.979Z,20.10
2019-03-21T14:53:36.327Z,20.43
2019-03-21T14:56:04.709Z,18.90
2019-03-21T14:58:33.169Z,19.23
2019-03-21T15:01:01.514Z,19.50
2019-03-21T15:03:30.166Z,17.57
2019-03-21T15:05:58.625Z,21.03
2019-03-21T15:08:27.013Z,20.97
2019-03-21T15:10:56.586Z,19.37
2019-03-21T15:13:26.368Z,21.07
2019-03-21T15:15:54.754Z,17.97
2019-03-21T15:18:23.233Z,18.47
2019-03-21T15:20:51.905Z,19.53
2019-03-21T15:23:20.371Z,22.23
2019-03-21T15:25:50.490Z,20.57
2019-03-21T15:28:22.225Z,19.90
2019-03-21T15:30:50.571Z,20.83
2019-03-21T15:33:18.934Z,21.90
2019-03-21T15:35:47.576Z,20.23
2019-03-21T15:38:17.437Z,21.37
2019-03-21T15:40:45.798Z,23.43
2019-03-21T15:43:14.352Z,22.37
2019-03-21T15:45:42.743Z,22.50
2019-03-21T15:48:11.082Z,22.17
2019-03-21T15:50:39.626Z,19.93
2019-03-21T15:53:08.054Z,19.77
2019-03-21T15:55:36.584Z,19.60
2019-03-21T15:58:05.122Z,18.50
2019-03-21T16:00:34.298Z,20.07
2019-03-21T16:03:02.728Z,22.53
2019-03-21T16:05:31.185Z,20.93
2019-03-21T16:07:59.534Z,22.00
2019-03-21T16:10:28.019Z,21.80
2019-03-21T16:12:56.582Z,19.27
2019-03-21T16:15:27.133Z,21.40
2019-03-21T16:17:55.645Z,21.57
2019-03-21T16:20:27.434Z,21.20
2019-03-21T16:22:55.784Z,20.23
2019-03-21T16:25:24.528Z,17.98
2019-03-21T16:27:55.058Z,19.70
2019-03-21T16:30:23.425Z,25.77
2019-03-21T16:32:51.768Z,21.17
2019-03-21T16:35:24.712Z,20.00
2019-03-21T16:37:53.081Z,22.60
2019-03-21T16:40:21.422Z,20.57
2019-03-21T16:42:51.504Z,20.87
2019-03-21T16:45:21.239Z,20.57
2019-03-21T16:47:50.003Z,22.50
2019-03-21T16:50:18.500Z,23.30
2019-03-21T16:52:46.844Z,20.17
2019-03-21T16:55:15.302Z,21.90
2019-03-21T16:57:43.742Z,20.10
2019-03-21T17:00:12.177Z,19.17
2019-03-21T17:02:40.532Z,21.87
2019-03-21T17:05:09.106Z,23.80
2019-03-21T17:07:37.481Z,21.53
2019-03-21T17:10:07.428Z,23.10
2019-03-21T17:12:36.113Z,24.47
2019-03-21T17:15:04.574Z,21.27
2019-03-21T17:17:32.969Z,22.80
2019-03-21T17:20:03.772Z,21.13
2019-03-21T17:22:31.474Z,24.07
2019-03-21T17:24:59.877Z,22.27
2019-03-21T17:27:29.860Z,22.40
2019-03-21T17:29:58.245Z,21.17
2019-03-21T17:32:26.629Z,20.93
2019-03-21T17:34:55.144Z,22.00
2019-03-21T17:37:26.697Z,24.60
2019-03-21T17:39:55.077Z,22.43
2019-03-21T17:42:23.550Z,22.23
2019-03-21T17:44:51.873Z,22.57
2019-03-21T17:47:20.212Z,24.83
2019-03-21T17:49:48.816Z,21.77
2019-03-21T17:52:17.194Z,25.67
2019-03-21T17:54:45.617Z,25.47
2019-03-21T17:57:14.996Z,22.87
2019-03-21T17:59:44.175Z,23.20
2019-03-21T18:02:12.541Z,23.23
2019-03-21T18:04:41.170Z,24.73
2019-03-21T18:07:09.534Z,23.83
2019-03-21T18:09:37.924Z,24.03
2019-03-21T18:12:06.539Z,21.30
2019-03-21T18:14:34.871Z,25.03
2019-03-21T18:17:03.192Z,24.27
2019-03-21T18:19:31.662Z,24.80
2019-03-21T18:22:00.042Z,24.83
2019-03-21T18:24:28.367Z,23.70
2019-03-21T18:26:56.845Z,25.30
2019-03-21T18:29:25.908Z,23.83
2019-03-21T18:31:54.327Z,22.87
2019-03-21T18:34:22.762Z,23.07
2019-03-21T18:36:51.077Z,27.07
2019-03-21T18:39:19.430Z,21.80
2019-03-21T18:41:47.851Z,24.80
2019-03-21T18:44:16.203Z,26.07
2019-03-21T18:46:44.674Z,27.93
2019-03-21T18:49:13.133Z,27.17
2019-03-21T18:51:43.112Z,24.77
2019-03-21T18:54:11.445Z,25.90
2019-03-21T18:56:40.134Z,26.87
2019-03-21T18:59:08.495Z,28.20
2019-03-21T19:01:36.842Z,30.10
2019-03-21T19:04:05.335Z,30.07
2019-03-21T19:06:33.682Z,29.57
2019-03-21T19:09:02.046Z,33.50
2019-03-21T19:11:30.518Z,26.63
2019-03-21T19:13:58.865Z,28.20
2019-03-21T19:16:27.240Z,29.70
2019-03-21T19:18:55.725Z,27.67
2019-03-21T19:21:24.061Z,29.57
2019-03-21T19:23:52.411Z,28.83
2019-03-21T19:26:20.863Z,26.17
2019-03-21T19:28:49.205Z,25.37
2019-03-21T19:31:18.166Z,25.90
2019-03-21T19:33:46.713Z,27.03
2019-03-21T19:36:15.144Z,25.07
2019-03-21T19:38:43.510Z,24.80
2019-03-21T19:41:13.948Z,25.83
2019-03-21T19:43:42.312Z,26.17
2019-03-21T19:46:10.644Z,25.77
2019-03-21T19:48:49.770Z,26.50
2019-03-21T19:51:09.762Z,27.50
2019-03-21T19:53:38.051Z,25.87
2019-03-21T19:56:08.944Z,28.13
2019-03-21T19:58:36.426Z,29.70
2019-03-21T20:01:04.750Z,29.93
2019-03-21T20:03:33.367Z,32.23
2019-03-21T20:06:01.701Z,31.93
2019-03-21T20:08:30.002Z,29.43
2019-03-21T20:10:58.378Z,32.53
2019-03-21T20:13:26.730Z,31.87
2019-03-21T20:15:55.086Z,30.87
2019-03-21T20:18:23.984Z,28.40
2019-03-21T20:20:52.326Z,32.20
2019-03-21T20:23:20.698Z,30.60
2019-03-21T20:25:49.346Z,32.63
2019-03-21T20:28:17.729Z,31.00
2019-03-21T20:30:46.081Z,30.20
2019-03-21T20:33:15.195Z,31.93
2019-03-21T20:35:43.685Z,29.87
2019-03-21T20:38:12.050Z,30.73
2019-03-21T20:40:40.454Z,28.47
2019-03-21T20:43:08.794Z,32.13
2019-03-21T20:45:37.200Z,27.73
2019-03-21T20:48:05.572Z,29.97
2019-03-21T20:50:33.941Z,30.43
2019-03-21T20:53:02.283Z,29.77
2019-03-21T20:55:30.753Z,31.60
2019-03-21T20:57:59.113Z,33.73
2019-03-21T21:00:27.585Z,31.80
2019-03-21T21:02:56.067Z,33.57
2019-03-21T21:05:24.394Z,38.53
2019-03-21T21:07:52.777Z,38.40
2019-03-21T21:10:21.198Z,36.90
2019-03-21T21:12:50.450Z,40.90
2019-03-21T21:15:18.898Z,37.60
2019-03-21T21:17:47.426Z,36.50
2019-03-21T21:20:18.374Z,38.77
2019-03-21T21:22:46.804Z,40.07
2019-03-21T21:25:15.218Z,37.27
2019-03-21T21:27:49.135Z,41.57
2019-03-21T21:30:14.081Z,37.80
2019-03-21T21:32:42.749Z,39.30
2019-03-21T21:35:11.174Z,40.57
2019-03-21T21:37:39.482Z,39.87
2019-03-21T21:40:08.155Z,39.77
2019-03-21T21:42:36.549Z,42.73
2019-03-21T21:45:06.153Z,41.50
2019-03-21T21:47:34.560Z,42.50
2019-03-21T21:50:02.916Z,41.87
2019-03-21T21:52:41.984Z,42.40
2019-03-21T21:55:03.728Z,39.63
2019-03-21T21:57:32.062Z,39.73
2019-03-21T22:00:02.158Z,42.00
2019-03-21T22:02:30.647Z,40.23
2019-03-21T22:05:00.507Z,44.77
2019-03-21T22:07:29.221Z,41.10
2019-03-21T22:09:57.693Z,41.67
2019-03-21T22:12:27.220Z,38.67
2019-03-21T22:14:56.765Z,39.10
2019-03-21T22:17:25.616Z,39.90
2019-03-21T22:19:54.108Z,40.67
2019-03-21T22:22:25.202Z,41.23
2019-03-21T22:24:54.093Z,41.47
2019-03-21T22:27:22.470Z,42.33
2019-03-21T22:29:50.957Z,40.47
2019-03-21T22:32:19.537Z,42.63
2019-03-21T22:34:47.886Z,38.63
2019-03-21T22:37:16.478Z,39.17
2019-03-21T22:39:45.344Z,42.37
2019-03-21T22:42:13.703Z,42.47
2019-03-21T22:44:42.025Z,41.47
2019-03-21T22:47:10.407Z,43.93
2019-03-21T22:49:38.802Z,43.97
2019-03-21T22:52:07.129Z,53.17
2019-03-21T22:54:37.251Z,48.37
2019-03-21T22:57:06.688Z,43.57
2019-03-21T22:59:35.044Z,43.83
2019-03-21T23:02:03.869Z,43.37
2019-03-21T23:04:32.288Z,41.20
2019-03-21T23:07:00.624Z,44.13
2019-03-21T23:09:29.180Z,40.33
2019-03-21T23:11:57.672Z,39.10
2019-03-21T23:14:26.099Z,48.87
2019-03-21T23:16:54.584Z,46.93
2019-03-21T23:19:22.924Z,53.93
2019-03-21T23:21:51.746Z,45.47
2019-03-21T23:24:20.339Z,45.40
2019-03-21T23:26:53.110Z,40.03
2019-03-21T23:29:18.698Z,47.67
2019-03-21T23:31:50.141Z,33.77
2019-03-21T23:34:18.628Z,28.40
2019-03-21T23:36:46.967Z,32.10
2019-03-21T23:39:15.853Z,30.67
2019-03-21T23:41:44.303Z,30.37
2019-03-21T23:44:14.494Z,28.33
2019-03-21T23:46:44.040Z,29.50
2019-03-21T23:49:12.437Z,29.93
2019-03-21T23:51:40.785Z,30.53
2019-03-21T23:54:09.220Z,29.60
2019-03-21T23:56:37.556Z,32.83
2019-03-21T23:59:05.882Z,36.20
